sensor_id;sensor_type;location;lat;lon;timestamp;pressure;altitude;pressure_sealevel;temperature;humidity
13348;BME280;6743;49.934;9.138;2023-04-02T00:01:33;99566.22;;;9.91;100.00
13348;BME280;6743;49.934;9.138;2023-04-02T00:04:10;99574.53;;;9.87;100.00
13348;BME280;6743;49.934;9.138;2023-04-02T00:06:38;99567.19;;;9.89;100.00
13348;BME280;6743;49.934;9.138;2023-04-02T00:09:30;99565.91;;;9.85;100.00
13348;BME280;6743;49.934;9.138;2023-04-02T00:11:58;99578.00;;;9.88;100.00
13348;BME280;6743;49.934;9.138;2023-04-02T00:14:44;99582.00;;;9.84;100.00
13348;BME280;6743;49.934;9.138;2023-04-02T00:17:12;99582.97;;;9.83;100.00
13348;BME280;6743;49.934;9.138;2023-04-02T00:19:42;99591.13;;;9.81;100.00
13348;BME280;6743;49.934;9.138;2023-04-02T00:22:15;99588.66;;;9.80;100.00
13348;BME280;6743;49.934;9.138;2023-04-02T00:24:41;99587.16;;;9.77;100.00
13348;BME280;6743;49.934;9.138;2023-04-02T00:27:09;99595.78;;;9.79;100.00
13348;BME280;6743;49.934;9.138;2023-04-02T00:29:44;99601.25;;;9.78;100.00
13348;BME280;6743;49.934;9.138;2023-04-02T00:32:17;99603.22;;;9.76;100.00
13348;BME280;6743;49.934;9.138;2023-04-02T00:34:46;99604.25;;;9.75;100.00
13348;BME280;6743;49.934;9.138;2023-04-02T00:37:15;99598.31;;;9.73;100.00
13348;BME280;6743;49.934;9.138;2023-04-02T00:39:43;99605.03;;;9.75;100.00
13348;BME280;6743;49.934;9.138;2023-04-02T00:42:11;99616.66;;;9.74;100.00
13348;BME280;6743;49.934;9.138;2023-04-02T00:44:39;99608.06;;;9.72;100.00
13348;BME280;6743;49.934;9.138;2023-04-02T00:47:12;99615.50;;;9.69;100.00
13348;BME280;6743;49.934;9.138;2023-04-02T00:49:42;99615.34;;;9.70;100.00
13348;BME280;6743;49.934;9.138;2023-04-02T00:52:11;99621.00;;;9.67;100.00
13348;BME280;6743;49.934;9.138;2023-04-02T00:54:40;99612.41;;;9.65;100.00
13348;BME280;6743;49.934;9.138;2023-04-02T00:57:14;99621.34;;;9.64;100.00
13348;BME280;6743;49.934;9.138;2023-04-02T00:59:50;99621.34;;;9.64;100.00
13348;BME280;6743;49.934;9.138;2023-04-02T01:02:22;99621.50;;;9.63;100.00
13348;BME280;6743;49.934;9.138;2023-04-02T01:04:52;99623.34;;;9.62;100.00
13348;BME280;6743;49.934;9.138;2023-04-02T01:07:23;99620.87;;;9.61;100.00
13348;BME280;6743;49.934;9.138;2023-04-02T01:10:20;99625.34;;;9.60;100.00
13348;BME280;6743;49.934;9.138;2023-04-02T01:12:56;99626.97;;;9.61;100.00
13348;BME280;6743;49.934;9.138;2023-04-02T01:15:29;99633.09;;;9.62;100.00
13348;BME280;6743;49.934;9.138;2023-04-02T01:18:18;99622.03;;;9.58;100.00
13348;BME280;6743;49.934;9.138;2023-04-02T01:21:02;99627.19;;;9.60;100.00
13348;BME280;6743;49.934;9.138;2023-04-02T01:23:34;99638.41;;;9.62;100.00
13348;BME280;6743;49.934;9.138;2023-04-02T01:26:08;99638.41;;;9.62;100.00
13348;BME280;6743;49.934;9.138;2023-04-02T01:29:00;99644.53;;;9.62;100.00
13348;BME280;6743;49.934;9.138;2023-04-02T01:31:27;99642.25;;;9.59;100.00
13348;BME280;6743;49.934;9.138;2023-04-02T01:33:55;99649.53;;;9.57;100.00
13348;BME280;6743;49.934;9.138;2023-04-02T01:36:27;99652.00;;;9.59;100.00
13348;BME280;6743;49.934;9.138;2023-04-02T01:39:02;99622.13;;;9.42;100.00
13348;BME280;6743;49.934;9.138;2023-04-02T01:41:33;99654.81;;;9.57;100.00
13348;BME280;6743;49.934;9.138;2023-04-02T01:44:19;99652.84;;;9.59;100.00
13348;BME280;6743;49.934;9.138;2023-04-02T01:46:51;99662.75;;;9.57;100.00
13348;BME280;6743;49.934;9.138;2023-04-02T01:49:19;99667.06;;;9.58;100.00
13348;BME280;6743;49.934;9.138;2023-04-02T01:51:50;99664.41;;;9.58;100.00
13348;BME280;6743;49.934;9.138;2023-04-02T01:54:18;99665.25;;;9.59;100.00
13348;BME280;6743;49.934;9.138;2023-04-02T01:56:44;99669.72;;;9.58;100.00
13348;BME280;6743;49.934;9.138;2023-04-02T01:59:13;99677.50;;;9.60;100.00
13348;BME280;6743;49.934;9.138;2023-04-02T02:01:43;99674.00;;;9.59;100.00
13348;BME280;6743;49.934;9.138;2023-04-02T02:04:11;99678.47;;;9.59;100.00
13348;BME280;6743;49.934;9.138;2023-04-02T02:06:38;99683.78;;;9.59;100.00
13348;BME280;6743;49.934;9.138;2023-04-02T02:09:05;99677.66;;;9.58;100.00
13348;BME280;6743;49.934;9.138;2023-04-02T02:11:33;99681.28;;;9.57;100.00
13348;BME280;6743;49.934;9.138;2023-04-02T02:14:05;99690.91;;;9.58;100.00
13348;BME280;6743;49.934;9.138;2023-04-02T02:16:37;99685.44;;;9.60;100.00
13348;BME280;6743;49.934;9.138;2023-04-02T02:19:15;99687.25;;;9.59;100.00
13348;BME280;6743;49.934;9.138;2023-04-02T02:21:45;99693.53;;;9.58;100.00
13348;BME280;6743;49.934;9.138;2023-04-02T02:24:19;99692.56;;;9.59;100.00
13348;BME280;6743;49.934;9.138;2023-04-02T02:26:47;99698.00;;;9.58;100.00
13348;BME280;6743;49.934;9.138;2023-04-02T02:29:17;99695.53;;;9.56;100.00
13348;BME280;6743;49.934;9.138;2023-04-02T02:31:46;99699.38;;;9.54;100.00
13348;BME280;6743;49.934;9.138;2023-04-02T02:34:20;99685.03;;;9.40;100.00
13348;BME280;6743;49.934;9.138;2023-04-02T02:36:52;99706.66;;;9.52;100.00
13348;BME280;6743;49.934;9.138;2023-04-02T02:39:24;99711.28;;;9.49;100.00
13348;BME280;6743;49.934;9.138;2023-04-02T02:41:54;99712.28;;;9.48;100.00
13348;BME280;6743;49.934;9.138;2023-04-02T02:44:23;99711.81;;;9.45;100.00
13348;BME280;6743;49.934;9.138;2023-04-02T02:46:53;99714.28;;;9.46;100.00
13348;BME280;6743;49.934;9.138;2023-04-02T02:49:25;99723.22;;;9.45;100.00
13348;BME280;6743;49.934;9.138;2023-04-02T02:51:57;99713.63;;;9.44;100.00
13348;BME280;6743;49.934;9.138;2023-04-02T02:54:25;99725.03;;;9.45;100.00
13348;BME280;6743;49.934;9.138;2023-04-02T02:56:55;99722.56;;;9.43;100.00
13348;BME280;6743;49.934;9.138;2023-04-02T02:59:23;99719.91;;;9.43;100.00
13348;BME280;6743;49.934;9.138;2023-04-02T03:01:49;99726.03;;;9.44;100.00
13348;BME280;6743;49.934;9.138;2023-04-02T03:04:19;99731.31;;;9.44;100.00
13348;BME280;6743;49.934;9.138;2023-04-02T03:06:48;99729.66;;;9.43;100.00
13348;BME280;6743;49.934;9.138;2023-04-02T03:09:22;99734.13;;;9.42;100.00
13348;BME280;6743;49.934;9.138;2023-04-02T03:11:58;99736.78;;;9.42;100.00
13348;BME280;6743;49.934;9.138;2023-04-02T03:14:30;99744.25;;;9.39;100.00
13348;BME280;6743;49.934;9.138;2023-04-02T03:17:01;99749.34;;;9.40;100.00
13348;BME280;6743;49.934;9.138;2023-04-02T03:19:34;99749.34;;;9.40;100.00
13348;BME280;6743;49.934;9.138;2023-04-02T03:22:07;99752.19;;;9.39;100.00
13348;BME280;6743;49.934;9.138;2023-04-02T03:24:40;99761.12;;;9.38;100.00
13348;BME280;6743;49.934;9.138;2023-04-02T03:27:14;99757.97;;;9.34;100.00
13348;BME280;6743;49.934;9.138;2023-04-02T03:29:57;99767.56;;;9.35;100.00
13348;BME280;6743;49.934;9.138;2023-04-02T03:32:29;99776.34;;;9.36;100.00
13348;BME280;6743;49.934;9.138;2023-04-02T03:35:00;99766.59;;;9.36;100.00
13348;BME280;6743;49.934;9.138;2023-04-02T03:37:31;99774.22;;;9.31;100.00
13348;BME280;6743;49.934;9.138;2023-04-02T03:40:03;99782.47;;;9.36;100.00
13348;BME280;6743;49.934;9.138;2023-04-02T03:42:39;99780.81;;;9.35;100.00
13348;BME280;6743;49.934;9.138;2023-04-02T03:45:12;99788.75;;;9.35;100.00
13348;BME280;6743;49.934;9.138;2023-04-02T03:47:44;99788.75;;;9.35;100.00
13348;BME280;6743;49.934;9.138;2023-04-02T03:50:17;99796.69;;;9.35;100.00
13348;BME280;6743;49.934;9.138;2023-04-02T03:52:47;99791.56;;;9.34;100.00
13348;BME280;6743;49.934;9.138;2023-04-02T03:55:15;99796.06;;;9.33;100.00
13348;BME280;6743;49.934;9.138;2023-04-02T03:57:46;99800.53;;;9.33;100.00
13348;BME280;6743;49.934;9.138;2023-04-02T04:00:23;99805.00;;;9.32;100.00
13348;BME280;6743;49.934;9.138;2023-04-02T04:02:55;99808.47;;;9.33;100.00
13348;BME280;6743;49.934;9.138;2023-04-02T04:05:27;99799.69;;;9.32;100.00
13348;BME280;6743;49.934;9.138;2023-04-02T04:07:58;99808.47;;;9.33;100.00
13348;BME280;6743;49.934;9.138;2023-04-02T04:10:27;99812.94;;;9.32;100.00
13348;BME280;6743;49.934;9.138;2023-04-02T04:12:55;99819.22;;;9.31;100.00
13348;BME280;6743;49.934;9.138;2023-04-02T04:15:30;99829.81;;;9.31;100.00
13348;BME280;6743;49.934;9.138;2023-04-02T04:18:00;99822.19;;;9.28;100.00
13348;BME280;6743;49.934;9.138;2023-04-02T04:20:33;99829.97;;;9.30;100.00
13348;BME280;6743;49.934;9.138;2023-04-02T04:23:09;99821.34;;;9.28;100.00
13348;BME280;6743;49.934;9.138;2023-04-02T04:25:39;99830.94;;;9.29;100.00
13348;BME280;6743;49.934;9.138;2023-04-02T04:28:12;99834.44;;;9.29;100.00
13348;BME280;6743;49.934;9.138;2023-04-02T04:30:49;99812.44;;;9.13;100.00
13348;BME280;6743;49.934;9.138;2023-04-02T04:33:19;99839.72;;;9.29;100.00
13348;BME280;6743;49.934;9.138;2023-04-02T04:35:50;99841.53;;;9.29;100.00
13348;BME280;6743;49.934;9.138;2023-04-02T04:38:19;99849.63;;;9.27;100.00
13348;BME280;6743;49.934;9.138;2023-04-02T04:40:56;99853.12;;;9.28;100.00
13348;BME280;6743;49.934;9.138;2023-04-02T04:43:29;99860.22;;;9.27;100.00
13348;BME280;6743;49.934;9.138;2023-04-02T04:46:00;99863.06;;;9.26;100.00
13348;BME280;6743;49.934;9.138;2023-04-02T04:48:33;99863.06;;;9.26;100.00
13348;BME280;6743;49.934;9.138;2023-04-02T04:51:03;99869.19;;;9.26;100.00
13348;BME280;6743;49.934;9.138;2023-04-02T04:53:31;99871.00;;;9.26;100.00
13348;BME280;6743;49.934;9.138;2023-04-02T04:55:59;99876.28;;;9.26;100.00
13348;BME280;6743;49.934;9.138;2023-04-02T04:58:32;99873.81;;;9.24;100.00
13348;BME280;6743;49.934;9.138;2023-04-02T05:01:03;99876.59;;;9.23;100.00
13348;BME280;6743;49.934;9.138;2023-04-02T05:03:34;99879.09;;;9.24;100.00
13348;BME280;6743;49.934;9.138;2023-04-02T05:06:08;99890.69;;;9.23;100.00
13348;BME280;6743;49.934;9.138;2023-04-02T05:08:38;99881.59;;;9.18;100.00
13348;BME280;6743;49.934;9.138;2023-04-02T05:11:09;99893.47;;;9.22;100.00
13348;BME280;6743;49.934;9.138;2023-04-02T05:13:41;99896.97;;;9.22;100.00
13348;BME280;6743;49.934;9.138;2023-04-02T05:16:14;99909.34;;;9.22;100.00
13348;BME280;6743;49.934;9.138;2023-04-02T05:18:44;99912.00;;;9.22;100.00
13348;BME280;6743;49.934;9.138;2023-04-02T05:21:17;99916.31;;;9.23;100.00
13348;BME280;6743;49.934;9.138;2023-04-02T05:23:48;99921.59;;;9.23;100.00
13348;BME280;6743;49.934;9.138;2023-04-02T05:26:19;99920.78;;;9.22;100.00
13348;BME280;6743;49.934;9.138;2023-04-02T05:28:52;99931.38;;;9.22;100.00
13348;BME280;6743;49.934;9.138;2023-04-02T05:31:23;99926.06;;;9.22;100.00
13348;BME280;6743;49.934;9.138;2023-04-02T05:33:51;99933.19;;;9.22;100.00
13348;BME280;6743;49.934;9.138;2023-04-02T05:36:20;99930.38;;;9.23;100.00
13348;BME280;6743;49.934;9.138;2023-04-02T05:38:48;99940.13;;;9.23;100.00
13348;BME280;6743;49.934;9.138;2023-04-02T05:41:21;99942.78;;;9.23;100.00
13348;BME280;6743;49.934;9.138;2023-04-02T05:43:57;99946.25;;;9.23;100.00
13348;BME280;6743;49.934;9.138;2023-04-02T05:46:29;99953.22;;;9.24;100.00
13348;BME280;6743;49.934;9.138;2023-04-02T05:48:58;99953.22;;;9.24;100.00
13348;BME280;6743;49.934;9.138;2023-04-02T05:51:28;99954.19;;;9.23;100.00
13348;BME280;6743;49.934;9.138;2023-04-02T05:53:57;99966.09;;;9.27;100.00
13348;BME280;6743;49.934;9.138;2023-04-02T05:56:27;99961.47;;;9.29;100.00
13348;BME280;6743;49.934;9.138;2023-04-02T05:59:00;99969.25;;;9.31;100.00
13348;BME280;6743;49.934;9.138;2023-04-02T06:01:36;99968.13;;;9.33;100.00
13348;BME280;6743;49.934;9.138;2023-04-02T06:04:10;99946.56;;;9.20;100.00
13348;BME280;6743;49.934;9.138;2023-04-02T06:06:48;99973.41;;;9.33;100.00
13348;BME280;6743;49.934;9.138;2023-04-02T06:09:20;99980.84;;;9.38;100.00
13348;BME280;6743;49.934;9.138;2023-04-02T06:11:53;99980.50;;;9.41;100.00
13348;BME280;6743;49.934;9.138;2023-04-02T06:14:21;99986.47;;;9.43;100.00
13348;BME280;6743;49.934;9.138;2023-04-02T06:16:47;99987.97;;;9.45;100.00
13348;BME280;6743;49.934;9.138;2023-04-02T06:19:18;99992.94;;;9.48;100.00
13348;BME280;6743;49.934;9.138;2023-04-02T06:21:47;99989.97;;;9.52;100.00
13348;BME280;6743;49.934;9.138;2023-04-02T06:24:18;99993.28;;;9.54;100.00
13348;BME280;6743;49.934;9.138;2023-04-02T06:26:49;100003.53;;;9.57;100.00
13348;BME280;6743;49.934;9.138;2023-04-02T06:29:24;100009.34;;;9.60;100.00
13348;BME280;6743;49.934;9.138;2023-04-02T06:31:54;100008.69;;;9.58;100.00
13348;BME280;6743;49.934;9.138;2023-04-02T06:34:23;100020.44;;;9.64;100.00
13348;BME280;6743;49.934;9.138;2023-04-02T06:36:54;100027.22;;;9.66;100.00
13348;BME280;6743;49.934;9.138;2023-04-02T06:39:23;100020.75;;;9.69;100.00
13348;BME280;6743;49.934;9.138;2023-04-02T06:41:55;100038.16;;;9.71;100.00
13348;BME280;6743;49.934;9.138;2023-04-02T06:44:23;100036.19;;;9.73;100.00
13348;BME280;6743;49.934;9.138;2023-04-02T06:46:54;100040.28;;;9.76;100.00
13348;BME280;6743;49.934;9.138;2023-04-02T06:49:25;100038.31;;;9.78;100.00
13348;BME280;6743;49.934;9.138;2023-04-02T06:51:57;100046.78;;;9.81;100.00
13348;BME280;6743;49.934;9.138;2023-04-02T06:54:26;100049.25;;;9.83;100.00
13348;BME280;6743;49.934;9.138;2023-04-02T06:56:53;100057.84;;;9.85;100.00
13348;BME280;6743;49.934;9.138;2023-04-02T06:59:20;100058.53;;;9.87;100.00
13348;BME280;6743;49.934;9.138;2023-04-02T07:01:49;100073.25;;;9.89;100.00
13348;BME280;6743;49.934;9.138;2023-04-02T07:04:18;100080.22;;;9.91;100.00
13348;BME280;6743;49.934;9.138;2023-04-02T07:06:45;100080.06;;;9.92;100.00
13348;BME280;6743;49.934;9.138;2023-04-02T07:09:12;100090.50;;;9.94;100.00
13348;BME280;6743;49.934;9.138;2023-04-02T07:11:38;100094.97;;;9.93;100.00
13348;BME280;6743;49.934;9.138;2023-04-02T07:14:05;100095.81;;;9.94;100.00
13348;BME280;6743;49.934;9.138;2023-04-02T07:16:33;100100.09;;;9.95;100.00
13348;BME280;6743;49.934;9.138;2023-04-02T07:19:02;100103.41;;;9.97;100.00
13348;BME280;6743;49.934;9.138;2023-04-02T07:21:29;100107.72;;;9.98;100.00
13348;BME280;6743;49.934;9.138;2023-04-02T07:23:56;100109.38;;;9.99;100.00
13348;BME280;6743;49.934;9.138;2023-04-02T07:26:25;100114.53;;;10.00;100.00
13348;BME280;6743;49.934;9.138;2023-04-02T07:28:53;100116.34;;;10.00;100.00
13348;BME280;6743;49.934;9.138;2023-04-02T07:31:21;100135.87;;;9.99;100.00
13348;BME280;6743;49.934;9.138;2023-04-02T07:33:49;100140.19;;;10.00;100.00
13348;BME280;6743;49.934;9.138;2023-04-02T07:36:18;100142.00;;;9.99;100.00
13348;BME280;6743;49.934;9.138;2023-04-02T07:38:45;100140.69;;;9.95;100.00
13348;BME280;6743;49.934;9.138;2023-04-02T07:41:11;100148.63;;;9.95;100.00
13348;BME280;6743;49.934;9.138;2023-04-02T07:43:38;100151.59;;;9.92;100.00
13348;BME280;6743;49.934;9.138;2023-04-02T07:46:04;100151.91;;;9.89;100.00
13348;BME280;6743;49.934;9.138;2023-04-02T07:48:31;100151.94;;;9.81;100.00
13348;BME280;6743;49.934;9.138;2023-04-02T07:50:57;100158.69;;;9.75;100.00
13348;BME280;6743;49.934;9.138;2023-04-02T07:53:26;100158.34;;;9.70;100.00
13348;BME280;6743;49.934;9.138;2023-04-02T07:55:54;100161.94;;;9.61;100.00
13348;BME280;6743;49.934;9.138;2023-04-02T07:58:20;100168.00;;;9.37;100.00
13348;BME280;6743;49.934;9.138;2023-04-02T08:00:47;100157.84;;;9.25;100.00
13348;BME280;6743;49.934;9.138;2023-04-02T08:03:13;100162.81;;;9.28;100.00
13348;BME280;6743;49.934;9.138;2023-04-02T08:05:39;100159.81;;;9.23;100.00
13348;BME280;6743;49.934;9.138;2023-04-02T08:08:05;100176.22;;;9.26;100.00
13348;BME280;6743;49.934;9.138;2023-04-02T08:10:31;100181.97;;;9.22;100.00
13348;BME280;6743;49.934;9.138;2023-04-02T08:12:57;100184.28;;;9.17;100.00
13348;BME280;6743;49.934;9.138;2023-04-02T08:15:23;100188.88;;;9.15;100.00
13348;BME280;6743;49.934;9.138;2023-04-02T08:17:50;100201.62;;;9.11;100.00
13348;BME280;6743;49.934;9.138;2023-04-02T08:22:43;100213.34;;;9.08;100.00
13348;BME280;6743;49.934;9.138;2023-04-02T08:25:09;100214.03;;;9.11;100.00
13348;BME280;6743;49.934;9.138;2023-04-02T08:27:36;100223.91;;;9.08;100.00
13348;BME280;6743;49.934;9.138;2023-04-02T08:30:03;100228.38;;;9.08;100.00
13348;BME280;6743;49.934;9.138;2023-04-02T08:32:29;100246.75;;;9.09;100.00
13348;BME280;6743;49.934;9.138;2023-04-02T08:34:56;100248.06;;;9.05;100.00
13348;BME280;6743;49.934;9.138;2023-04-02T08:37:22;100264.75;;;9.06;100.00
13348;BME280;6743;49.934;9.138;2023-04-02T08:39:48;100264.94;;;9.04;100.00
13348;BME280;6743;49.934;9.138;2023-04-02T08:42:19;100270.56;;;9.09;100.00
13348;BME280;6743;49.934;9.138;2023-04-02T08:44:54;100277.00;;;9.07;100.00
13348;BME280;6743;49.934;9.138;2023-04-02T08:47:30;100283.59;;;9.03;100.00
13348;BME280;6743;49.934;9.138;2023-04-02T08:50:04;100279.81;;;9.05;100.00
13348;BME280;6743;49.934;9.138;2023-04-02T08:52:36;100276.12;;;8.98;100.00
13348;BME280;6743;49.934;9.138;2023-04-02T08:55:08;100295.31;;;9.00;100.00
13348;BME280;6743;49.934;9.138;2023-04-02T08:57:40;100305.44;;;9.05;100.00
13348;BME280;6743;49.934;9.138;2023-04-02T09:00:24;100301.19;;;9.12;100.00
13348;BME280;6743;49.934;9.138;2023-04-02T09:02:54;100312.78;;;9.11;100.00
13348;BME280;6743;49.934;9.138;2023-04-02T09:05:25;100329.53;;;9.20;100.00
13348;BME280;6743;49.934;9.138;2023-04-02T09:07:55;100323.25;;;9.21;100.00
13348;BME280;6743;49.934;9.138;2023-04-02T09:10:31;100331.94;;;9.31;100.00
13348;BME280;6743;49.934;9.138;2023-04-02T09:12:59;100337.75;;;9.34;100.00
13348;BME280;6743;49.934;9.138;2023-04-02T09:15:30;100341.41;;;9.33;100.00
13348;BME280;6743;49.934;9.138;2023-04-02T09:18:00;100350.97;;;9.34;100.00
13348;BME280;6743;49.934;9.138;2023-04-02T09:20:30;100361.28;;;9.37;100.00
13348;BME280;6743;49.934;9.138;2023-04-02T09:22:56;100351.66;;;9.36;100.00
13348;BME280;6743;49.934;9.138;2023-04-02T09:25:25;100360.94;;;9.40;100.00
13348;BME280;6743;49.934;9.138;2023-04-02T09:27:53;100377.38;;;9.44;100.00
13348;BME280;6743;49.934;9.138;2023-04-02T09:30:26;100373.06;;;9.43;100.00
13348;BME280;6743;49.934;9.138;2023-04-02T09:32:57;100384.62;;;9.42;100.00
13348;BME280;6743;49.934;9.138;2023-04-02T09:35:26;100392.06;;;9.38;100.00
13348;BME280;6743;49.934;9.138;2023-04-02T09:38:19;100397.97;;;9.32;100.00
13348;BME280;6743;49.934;9.138;2023-04-02T09:40:48;100401.28;;;9.34;100.00
13348;BME280;6743;49.934;9.138;2023-04-02T09:43:17;100400.78;;;9.31;100.00
13348;BME280;6743;49.934;9.138;2023-04-02T09:45:54;100408.09;;;9.37;100.00
13348;BME280;6743;49.934;9.138;2023-04-02T09:48:24;100407.81;;;9.40;100.00
13348;BME280;6743;49.934;9.138;2023-04-02T09:51:06;100415.41;;;9.43;100.00
13348;BME280;6743;49.934;9.138;2023-04-02T09:53:34;100424.28;;;9.52;100.00
13348;BME280;6743;49.934;9.138;2023-04-02T09:56:12;100426.38;;;9.48;100.00
13348;BME280;6743;49.934;9.138;2023-04-02T09:58:38;100437.19;;;9.55;100.00
13348;BME280;6743;49.934;9.138;2023-04-02T10:01:05;100442.44;;;9.46;100.00
13348;BME280;6743;49.934;9.138;2023-04-02T10:03:37;100445.94;;;9.47;100.00
13348;BME280;6743;49.934;9.138;2023-04-02T10:06:09;100449.84;;;9.43;100.00
13348;BME280;6743;49.934;9.138;2023-04-02T10:08:38;100456.28;;;9.40;100.00
13348;BME280;6743;49.934;9.138;2023-04-02T10:11:08;100466.72;;;9.42;100.00
13348;BME280;6743;49.934;9.138;2023-04-02T10:13:42;100469.91;;;9.45;100.00
13348;BME280;6743;49.934;9.138;2023-04-02T10:16:13;100481.00;;;9.49;100.00
13348;BME280;6743;49.934;9.138;2023-04-02T10:18:43;100487.59;;;9.45;100.00
13348;BME280;6743;49.934;9.138;2023-04-02T10:21:14;100495.69;;;9.43;100.00
13348;BME280;6743;49.934;9.138;2023-04-02T10:23:42;100485.56;;;9.39;100.00
13348;BME280;6743;49.934;9.138;2023-04-02T10:26:28;100502.28;;;9.39;100.00
13348;BME280;6743;49.934;9.138;2023-04-02T10:29:11;100502.28;;;9.39;100.00
13348;BME280;6743;49.934;9.138;2023-04-02T10:31:47;100516.03;;;9.43;100.00
13348;BME280;6743;49.934;9.138;2023-04-02T10:34:21;100520.97;;;9.38;100.00
13348;BME280;6743;49.934;9.138;2023-04-02T10:36:51;100524.13;;;9.41;100.00
13348;BME280;6743;49.934;9.138;2023-04-02T10:39:21;100526.62;;;9.43;100.00
13348;BME280;6743;49.934;9.138;2023-04-02T10:41:53;100532.63;;;9.45;100.00
13348;BME280;6743;49.934;9.138;2023-04-02T10:44:35;100535.03;;;9.38;100.00
13348;BME280;6743;49.934;9.138;2023-04-02T10:47:21;100530.03;;;9.35;100.00
13348;BME280;6743;49.934;9.138;2023-04-02T10:49:59;100559.53;;;9.40;100.00
13348;BME280;6743;49.934;9.138;2023-04-02T10:52:32;100552.37;;;9.33;100.00
13348;BME280;6743;49.934;9.138;2023-04-02T10:55:02;100563.19;;;9.39;100.00
13348;BME280;6743;49.934;9.138;2023-04-02T10:57:36;100564.09;;;9.48;100.00
13348;BME280;6743;49.934;9.138;2023-04-02T11:00:16;100563.94;;;9.49;100.00
13348;BME280;6743;49.934;9.138;2023-04-02T11:02:49;100568.34;;;9.59;100.00
13348;BME280;6743;49.934;9.138;2023-04-02T11:05:21;100585.81;;;9.52;100.00
13348;BME280;6743;49.934;9.138;2023-04-02T11:07:53;100577.66;;;9.45;100.00
13348;BME280;6743;49.934;9.138;2023-04-02T11:10:20;100584.00;;;9.52;100.00
13348;BME280;6743;49.934;9.138;2023-04-02T11:12:51;100578.03;;;9.50;100.00
13348;BME280;6743;49.934;9.138;2023-04-02T11:15:21;100587.69;;;9.41;100.00
13348;BME280;6743;49.934;9.138;2023-04-02T11:17:47;100580.97;;;9.47;100.00
13348;BME280;6743;49.934;9.138;2023-04-02T11:23:27;100593.16;;;9.58;100.00
13348;BME280;6743;49.934;9.138;2023-04-02T11:29:02;100595.97;;;9.56;100.00
13348;BME280;6743;49.934;9.138;2023-04-02T11:31:31;100606.63;;;9.64;100.00
13348;BME280;6743;49.934;9.138;2023-04-02T11:33:57;100598.69;;;9.64;100.00
13348;BME280;6743;49.934;9.138;2023-04-02T11:36:58;100605.59;;;9.75;100.00
13348;BME280;6743;49.934;9.138;2023-04-02T11:39:44;100617.78;;;9.68;100.00
13348;BME280;6743;49.934;9.138;2023-04-02T11:42:31;100626.25;;;9.71;100.00
13348;BME280;6743;49.934;9.138;2023-04-02T11:45:00;100625.97;;;9.74;100.00
13348;BME280;6743;49.934;9.138;2023-04-02T11:48:26;100623.37;;;9.65;100.00
13348;BME280;6743;49.934;9.138;2023-04-02T11:50:52;100639.12;;;9.66;100.00
13348;BME280;6743;49.934;9.138;2023-04-02T11:53:20;100642.00;;;9.73;100.00
13348;BME280;6743;49.934;9.138;2023-04-02T11:56:05;100643.97;;;9.71;100.00
13348;BME280;6743;49.934;9.138;2023-04-02T11:58:41;100653.87;;;9.69;100.00
13348;BME280;6743;49.934;9.138;2023-04-02T12:01:26;100651.91;;;9.71;100.00
13348;BME280;6743;49.934;9.138;2023-04-02T12:04:21;100662.50;;;9.71;100.00
13348;BME280;6743;49.934;9.138;2023-04-02T12:06:59;100664.31;;;9.70;100.00
13348;BME280;6743;49.934;9.138;2023-04-02T12:09:35;100670.78;;;9.68;100.00
13348;BME280;6743;49.934;9.138;2023-04-02T12:12:16;100679.47;;;9.60;100.00
13348;BME280;6743;49.934;9.138;2023-04-02T12:14:44;100680.56;;;9.58;100.00
13348;BME280;6743;49.934;9.138;2023-04-02T12:17:20;100687.69;;;9.57;100.00
13348;BME280;6743;49.934;9.138;2023-04-02T12:19:50;100688.37;;;9.59;100.00
13348;BME280;6743;49.934;9.138;2023-04-02T12:22:19;100701.06;;;9.56;100.00
13348;BME280;6743;49.934;9.138;2023-04-02T12:24:47;100699.25;;;9.56;100.00
13348;BME280;6743;49.934;9.138;2023-04-02T12:27:17;100704.03;;;9.53;100.00
13348;BME280;6743;49.934;9.138;2023-04-02T12:29:47;100709.84;;;9.56;100.00
13348;BME280;6743;49.934;9.138;2023-04-02T12:32:19;100711.00;;;9.54;100.00
13348;BME280;6743;49.934;9.138;2023-04-02T12:34:46;100706.69;;;9.53;100.00
13348;BME280;6743;49.934;9.138;2023-04-02T12:37:19;100714.97;;;9.40;100.00
13348;BME280;6743;49.934;9.138;2023-04-02T12:39:51;100722.47;;;9.44;100.00
13348;BME280;6743;49.934;9.138;2023-04-02T12:42:25;100719.69;;;9.46;100.00
13348;BME280;6743;49.934;9.138;2023-04-02T12:44:51;100734.31;;;9.40;100.00
13348;BME280;6743;49.934;9.138;2023-04-02T12:47:18;100733.78;;;9.37;100.00
13348;BME280;6743;49.934;9.138;2023-04-02T12:49:45;100737.25;;;9.37;100.00
13348;BME280;6743;49.934;9.138;2023-04-02T12:52:13;100732.81;;;9.28;100.00
13348;BME280;6743;49.934;9.138;2023-04-02T12:54:44;100746.19;;;9.36;100.00
13348;BME280;6743;49.934;9.138;2023-04-02T12:57:37;100742.25;;;9.40;100.00
13348;BME280;6743;49.934;9.138;2023-04-02T13:00:29;100742.81;;;9.44;100.00
13348;BME280;6743;49.934;9.138;2023-04-02T13:03:13;100736.81;;;9.42;100.00
13348;BME280;6743;49.934;9.138;2023-04-02T13:05:44;100736.41;;;9.46;100.00
13348;BME280;6743;49.934;9.138;2023-04-02T13:08:15;100738.47;;;9.53;100.00
13348;BME280;6743;49.934;9.138;2023-04-02T13:10:42;100735.50;;;9.56;100.00
13348;BME280;6743;49.934;9.138;2023-04-02T13:13:14;100739.69;;;9.58;100.00
13348;BME280;6743;49.934;9.138;2023-04-02T13:15:41;100750.56;;;9.55;100.00
13348;BME280;6743;49.934;9.138;2023-04-02T13:18:17;100754.22;;;9.54;100.00
13348;BME280;6743;49.934;9.138;2023-04-02T13:20:54;100752.37;;;9.55;100.00
13348;BME280;6743;49.934;9.138;2023-04-02T13:23:31;100766.06;;;9.50;100.00
13348;BME280;6743;49.934;9.138;2023-04-02T13:25:58;100765.56;;;9.37;100.00
13348;BME280;6743;49.934;9.138;2023-04-02T13:28:24;100770.84;;;9.37;100.00
13348;BME280;6743;49.934;9.138;2023-04-02T13:30:50;100777.69;;;9.30;100.00
13348;BME280;6743;49.934;9.138;2023-04-02T13:33:17;100774.22;;;9.29;100.00
13348;BME280;6743;49.934;9.138;2023-04-02T13:35:43;100777.00;;;9.28;100.00
13348;BME280;6743;49.934;9.138;2023-04-02T13:38:09;100777.88;;;9.19;100.00